Time;durP1;ratioP1;P1;durP2;ratioP2;P2;SDS_P1;SDS_P2;PMS_P1;PMS_P2;Temp;Humidity;BMP_temperature;BMP_pressure;BME280_temperature;BME280_humidity;BME280_pressure;Samples;Min_cycle;Max_cycle;Signal;HPM_P1;HPM_P2
2021/09/30 00:01:11;;;;;;;;;2.00;2.00;;;;;20.13;45.85;102018.47;6195402;22;57372;-70
2021/09/30 00:03:36;;;;;;;;;1.75;1.00;;;;;20.15;46.01;102024.63;6221237;22;45278;-71
2021/09/30 00:06:02;;;;;;;;;2.00;2.00;;;;;20.12;46.23;102019.38;6221106;22;47151;-70
2021/09/30 00:08:27;;;;;;;;;1.50;1.00;;;;;20.10;46.72;102012.34;6248023;22;46892;-70
2021/09/30 00:11:05;;;;;;;;;3.75;2.00;;;;;20.13;46.32;102012.31;6170452;22;45767;-71
2021/09/30 00:34:57;;;;;;;;;2.75;2.00;;;;;20.08;46.60;102012.38;6203670;22;45273;-70
2021/09/30 00:40:20;;;;;;;;;2.25;2.00;;;;;20.07;46.36;102009.69;6224811;22;45292;-71
2021/09/30 01:23:36;;;;;;;;;1.00;1.00;;;;;19.90;47.46;102002.81;6195872;22;45275;-71
2021/09/30 01:30:01;;;;;;;;;2.25;2.00;;;;;19.91;46.99;101985.16;6225572;22;45298;-71
2021/09/30 02:21:03;;;;;;;;;2.00;1.00;;;;;19.67;47.36;101979.16;6225990;22;45209;-71
2021/09/30 02:26:29;;;;;;;;;3.00;2.75;;;;;19.66;47.64;101984.50;6204466;22;45352;-71
2021/09/30 02:58:07;;;;;;;;;1.50;1.50;;;;;19.62;48.07;101966.84;6225884;22;45260;-71
2021/09/30 02:59:09;;;;;;;;;3.50;3.25;;;;;19.58;48.61;101962.47;6204000;22;45718;-71
2021/09/30 03:01:35;;;;;;;;;2.00;2.00;;;;;19.61;48.53;101957.16;6197428;22;45213;-71
2021/09/30 03:04:00;;;;;;;;;1.50;1.50;;;;;19.67;48.30;101954.47;6195672;22;45413;-71
2021/09/30 03:06:26;;;;;;;;;0.75;0.50;;;;;19.68;48.51;101949.13;6221132;22;52058;-71
2021/09/30 03:08:53;;;;;;;;;2.50;1.00;;;;;19.68;47.40;101957.09;6195555;22;45227;-71
2021/09/30 03:11:19;;;;;;;;;3.00;2.00;;;;;19.62;48.60;101954.47;6196517;22;45337;-71
2021/09/30 03:13:46;;;;;;;;;3.25;2.25;;;;;19.67;48.30;101954.47;6195653;22;45299;-71
2021/09/30 03:16:17;;;;;;;;;4.50;2.00;;;;;19.73;48.02;101959.72;6196396;22;47888;-71
2021/09/30 03:23:38;;;;;;;;;3.00;2.00;;;;;19.66;48.22;101969.47;6196167;22;45422;-71
2021/09/30 03:26:03;;;;;;;;;3.00;2.00;;;;;19.64;48.28;101958.03;6195708;22;47187;-71
2021/09/30 03:28:29;;;;;;;;;1.75;1.75;;;;;19.67;48.61;101971.22;6195880;22;45271;-71
2021/09/30 03:30:55;;;;;;;;;4.25;2.00;;;;;19.68;48.03;101957.09;6196534;22;45310;-71
2021/09/30 03:33:21;;;;;;;;;3.50;1.50;;;;;19.66;48.02;101965.94;6196088;22;45504;-71
2021/09/30 03:35:47;;;;;;;;;0.75;0.75;;;;;19.57;47.39;101961.59;6170463;22;47042;-71
2021/09/30 03:38:12;;;;;;;;;1.00;1.00;;;;;19.51;47.67;101963.38;6195648;22;45337;-71
2021/09/30 03:40:38;;;;;;;;;1.50;1.50;;;;;19.44;48.38;101954.59;6220547;22;48041;-71
2021/09/30 03:43:04;;;;;;;;;3.00;2.50;;;;;19.45;47.99;101964.31;6196015;22;45265;-71
2021/09/30 03:45:29;;;;;;;;;3.75;2.25;;;;;19.45;48.15;101969.59;6196056;22;46053;-70
2021/09/30 03:47:55;;;;;;;;;2.00;1.75;;;;;19.41;48.08;101965.22;6195828;22;45264;-70
2021/09/30 03:50:24;;;;;;;;;3.00;1.75;;;;;19.39;48.11;101967.91;6195908;22;50171;-70
2021/09/30 04:00:39;;;;;;;;;2.75;1.25;;;;;19.25;48.69;101975.03;6248283;22;45240;-70
2021/09/30 04:03:04;;;;;;;;;2.00;2.00;;;;;19.29;48.71;101989.16;6247916;22;45194;-70
2021/09/30 04:05:30;;;;;;;;;2.50;1.75;;;;;19.30;48.31;101978.56;6220609;22;45883;-70
2021/09/30 04:07:55;;;;;;;;;0.75;0.75;;;;;19.33;48.51;101988.22;6247826;22;54083;-70
2021/09/30 04:10:21;;;;;;;;;3.75;2.00;;;;;19.30;48.77;101993.56;6196426;22;45278;-70
2021/09/30 04:12:46;;;;;;;;;4.25;2.25;;;;;19.31;49.07;101987.38;6248079;22;45400;-69
2021/09/30 04:15:11;;;;;;;;;2.00;2.00;;;;;19.33;48.46;101986.47;6195064;22;55828;-69
2021/09/30 04:17:37;;;;;;;;;3.00;2.00;;;;;19.31;49.13;101990.91;6169751;22;65063;-69
2021/09/30 04:20:05;;;;;;;;;2.50;1.75;;;;;19.35;48.98;101997.03;6169865;22;53784;-69
2021/09/30 04:22:31;;;;;;;;;2.00;2.00;;;;;19.37;48.46;101992.59;6195611;22;45920;-69
2021/09/30 04:24:56;;;;;;;;;1.50;1.00;;;;;19.36;48.51;101993.50;6245110;22;66817;-69
2021/09/30 04:27:22;;;;;;;;;3.00;3.00;;;;;19.30;48.27;101980.31;6220973;22;45177;-69
2021/09/30 04:29:47;;;;;;;;;2.00;2.00;;;;;19.31;48.49;101985.59;6247763;22;51307;-70
2021/09/30 04:32:13;;;;;;;;;2.25;2.25;;;;;19.29;48.39;101989.16;6221082;22;45321;-69
2021/09/30 04:34:38;;;;;;;;;1.75;1.75;;;;;19.24;48.42;101990.94;6220671;22;45819;-70
2021/09/30 04:37:04;;;;;;;;;1.00;1.00;;;;;19.21;48.22;101986.56;6194905;22;45210;-69
2021/09/30 04:39:29;;;;;;;;;2.25;2.25;;;;;19.18;48.85;101997.16;6247982;22;45386;-69
2021/09/30 04:41:54;;;;;;;;;2.00;1.25;;;;;19.18;49.05;101992.72;6195348;22;45298;-69
2021/09/30 04:44:22;;;;;;;;;2.00;2.00;;;;;19.22;48.82;101995.38;6220732;22;45309;-69
2021/09/30 04:46:47;;;;;;;;;2.50;2.25;;;;;19.20;48.38;101977.75;6196638;22;45185;-70
2021/09/30 04:49:13;;;;;;;;;3.00;2.25;;;;;19.14;48.30;101985.72;6248035;22;45226;-70
2021/09/30 04:51:38;;;;;;;;;3.25;2.00;;;;;19.10;49.45;101978.66;6195500;22;45281;-70
2021/09/30 04:54:03;;;;;;;;;1.75;1.50;;;;;19.15;50.67;101974.22;6194898;22;49760;-68
2021/09/30 04:56:29;;;;;;;;;1.00;1.00;;;;;19.30;50.93;101962.66;6195192;22;55310;-69
2021/09/30 04:58:55;;;;;;;;;2.50;1.75;;;;;19.46;50.86;101966.97;6195086;22;45162;-70
2021/09/30 05:01:20;;;;;;;;;1.75;1.00;;;;;19.62;51.11;101967.72;6195484;22;45170;-68
2021/09/30 05:03:45;;;;;;;;;2.75;2.75;;;;;19.79;51.26;101978.16;6220390;22;58257;-69
2021/09/30 05:06:11;;;;;;;;;27.50;26.75;;;;;19.95;51.66;101973.63;6247936;22;45200;-67
2021/09/30 05:08:36;;;;;;;;;13.50;13.25;;;;;20.11;52.12;101982.28;6220396;22;51368;-68
2021/09/30 05:11:02;;;;;;;;;2245.00;1619.00;;;;;20.27;53.20;101983.88;6219846;22;45503;-72
2021/09/30 05:13:38;;;;;;;;;438.20;402.20;;;;;20.44;52.83;101978.44;6109624;23;47936;-71
2021/09/30 05:16:11;;;;;;;;;294.75;276.75;;;;;20.59;52.05;101980.91;6114579;23;45448;-71
2021/09/30 05:18:39;;;;;;;;;199.75;180.25;;;;;20.70;52.06;101983.41;6134773;23;45261;-70
2021/09/30 05:21:05;;;;;;;;;117.00;106.00;;;;;20.76;51.90;101978.91;6136620;23;45403;-70
2021/09/30 05:23:30;;;;;;;;;89.00;84.50;;;;;20.86;51.56;101985.84;6135240;23;45915;-71
2021/09/30 05:25:56;;;;;;;;;79.50;69.50;;;;;20.92;51.49;101986.66;6160377;23;45340;-68
2021/09/30 05:28:21;;;;;;;;;74.25;61.75;;;;;20.98;51.74;101994.53;6134804;23;45330;-71
2021/09/30 05:30:47;;;;;;;;;70.75;55.00;;;;;21.01;51.15;101997.13;6135660;23;45479;-68
2021/09/30 05:33:12;;;;;;;;;70.75;54.75;;;;;21.04;51.61;101978.53;6110282;23;47177;-70
2021/09/30 05:35:38;;;;;;;;;66.00;52.25;;;;;21.06;51.50;101985.56;6160276;23;49569;-70
2021/09/30 05:38:03;;;;;;;;;63.75;49.25;;;;;21.04;51.46;101982.06;6110479;23;45161;-71
2021/09/30 05:40:29;;;;;;;;;61.75;49.50;;;;;21.08;51.32;101988.19;6134724;23;49593;-70
2021/09/30 05:42:55;;;;;;;;;60.00;46.75;;;;;21.05;51.43;101985.59;6134517;23;48663;-71
2021/09/30 05:45:21;;;;;;;;;59.25;47.75;;;;;21.05;51.17;101981.16;6160430;23;45215;-70
2021/09/30 05:47:46;;;;;;;;;55.25;45.25;;;;;21.06;51.27;101984.69;6160267;23;45246;-70
2021/09/30 05:50:12;;;;;;;;;58.75;46.00;;;;;21.05;51.58;101985.59;6134257;23;53229;-70
2021/09/30 05:52:37;;;;;;;;;57.25;44.00;;;;;21.08;51.70;101990.84;6135366;23;45504;-70
2021/09/30 05:55:04;;;;;;;;;52.50;43.00;;;;;21.07;51.71;101992.63;6135364;23;45385;-70
2021/09/30 05:57:30;;;;;;;;;54.50;44.00;;;;;21.07;51.75;101999.72;6134614;23;45294;-70
2021/09/30 06:00:00;;;;;;;;;55.50;44.25;;;;;21.06;51.72;101998.84;6110515;23;46005;-71
2021/09/30 06:13:09;;;;;;;;;45.25;36.50;;;;;21.07;53.13;101991.75;6159122;23;45195;-71
2021/09/30 06:15:39;;;;;;;;;47.25;37.00;;;;;21.07;52.68;101989.09;6160592;23;45311;-70
2021/09/30 06:18:07;;;;;;;;;46.50;37.00;;;;;21.08;52.89;101990.84;6111209;23;45235;-71
2021/09/30 06:20:32;;;;;;;;;40.25;33.75;;;;;21.07;52.73;101989.97;6160347;23;45196;-71
2021/09/30 06:22:57;;;;;;;;;42.00;36.25;;;;;21.08;53.13;101993.50;6159837;23;46141;-71
2021/09/30 06:25:23;;;;;;;;;40.50;32.50;;;;;21.07;52.81;101995.28;6159657;23;51307;-71
2021/09/30 06:27:48;;;;;;;;;45.00;37.25;;;;;21.08;52.78;101996.16;6134496;23;45473;-71
2021/09/30 06:30:14;;;;;;;;;40.75;34.00;;;;;21.09;52.75;101993.47;6109917;23;45406;-71
2021/09/30 06:32:39;;;;;;;;;38.25;32.50;;;;;21.08;52.59;101993.50;6134730;23;46598;-71
2021/09/30 06:35:05;;;;;;;;;39.00;33.25;;;;;21.08;52.52;101998.81;6134228;23;45558;-70
2021/09/30 06:37:31;;;;;;;;;42.00;33.75;;;;;21.10;52.95;101997.88;6109374;23;45411;-71
2021/09/30 06:39:56;;;;;;;;;40.00;33.50;;;;;21.07;52.85;101992.63;6118658;23;45518;-70
2021/09/30 06:42:22;;;;;;;;;34.50;31.00;;;;;21.08;52.66;101990.84;6102723;23;47940;-71
2021/09/30 06:44:48;;;;;;;;;33.25;28.00;;;;;21.10;52.28;101986.38;6128317;23;45204;-71
2021/09/30 06:47:13;;;;;;;;;26.25;24.25;;;;;21.09;51.34;101982.84;6117436;23;45333;-71
2021/09/30 06:49:39;;;;;;;;;23.00;20.75;;;;;21.10;50.79;101991.69;6153965;23;45271;-70
2021/09/30 06:52:04;;;;;;;;;21.00;19.50;;;;;21.09;50.77;101989.94;6103663;23;66052;-71
2021/09/30 06:54:30;;;;;;;;;16.75;15.25;;;;;21.09;50.04;101987.28;6128881;23;45122;-70
2021/09/30 06:56:55;;;;;;;;;16.25;13.50;;;;;21.08;49.61;101986.41;6129266;23;45526;-71
2021/09/30 06:59:23;;;;;;;;;15.75;14.00;;;;;21.05;49.04;101977.63;6155075;23;45392;-71
2021/09/30 07:01:51;;;;;;;;;20.00;14.00;;;;;21.07;49.29;101986.44;6105369;23;47106;-71
2021/09/30 07:04:17;;;;;;;;;12.75;12.50;;;;;21.09;49.05;101980.19;6155691;23;45403;-71
2021/09/30 07:06:42;;;;;;;;;9.75;9.25;;;;;21.10;48.49;101984.59;6155305;23;51294;-71
2021/09/30 07:09:08;;;;;;;;;12.00;10.50;;;;;21.13;48.39;101973.97;6155867;23;45214;-68
2021/09/30 07:11:33;;;;;;;;;9.75;7.75;;;;;21.16;47.79;101973.03;6106173;23;48422;-71
2021/09/30 07:13:59;;;;;;;;;10.50;9.50;;;;;21.17;47.62;101969.47;6130251;23;45257;-68
2021/09/30 07:16:24;;;;;;;;;8.50;7.50;;;;;21.20;47.44;101973.84;6156161;23;45202;-71
2021/09/30 07:18:50;;;;;;;;;6.50;6.50;;;;;21.16;47.11;101967.72;6154744;23;63861;-71
2021/09/30 07:21:16;;;;;;;;;9.00;7.00;;;;;21.20;46.13;101969.44;6155150;23;46126;-71
2021/09/30 07:23:42;;;;;;;;;5.75;5.75;;;;;21.21;46.44;101975.63;6130855;23;45185;-71
2021/09/30 07:26:09;;;;;;;;;7.50;6.50;;;;;21.21;46.25;101978.28;6156218;23;45418;-71
2021/09/30 07:28:35;;;;;;;;;7.00;7.00;;;;;21.22;46.21;101988.88;6130581;23;45925;-71
2021/09/30 07:31:00;;;;;;;;;9.50;8.50;;;;;21.23;46.57;101987.09;6157416;23;45428;-71
2021/09/30 07:33:29;;;;;;;;;7.75;7.50;;;;;21.26;46.45;101990.56;6156749;23;51343;-70
2021/09/30 07:35:54;;;;;;;;;8.50;7.25;;;;;21.28;46.85;101996.75;6154341;23;54160;-70
2021/09/30 07:38:20;;;;;;;;;11.75;8.50;;;;;21.28;46.97;101988.78;6131043;23;45425;-69
2021/09/30 07:40:46;;;;;;;;;8.00;8.00;;;;;21.31;46.85;101988.78;6099466;23;48031;-70
2021/09/30 07:43:11;;;;;;;;;5.75;5.00;;;;;21.36;46.82;101986.91;6130051;23;45287;-71
2021/09/30 07:45:37;;;;;;;;;8.75;6.25;;;;;21.42;46.23;101991.25;6130158;23;45187;-72
2021/09/30 07:48:03;;;;;;;;;5.75;5.50;;;;;21.49;46.18;101992.91;6130750;23;45423;-70
2021/09/30 07:50:28;;;;;;;;;7.50;6.75;;;;;21.53;46.72;101981.31;6155349;23;45728;-72
2021/09/30 07:52:53;;;;;;;;;6.25;6.00;;;;;21.60;46.88;101984.75;6129079;23;62461;-70
2021/09/30 07:55:19;;;;;;;;;7.00;5.00;;;;;21.64;47.17;101981.16;6155698;23;45411;-71
2021/09/30 07:57:44;;;;;;;;;7.75;7.75;;;;;21.67;47.21;101979.31;6154707;23;58663;-72
2021/09/30 08:00:10;;;;;;;;;7.00;6.50;;;;;21.73;47.04;101975.69;6105746;23;47040;-71
2021/09/30 08:02:35;;;;;;;;;8.00;8.00;;;;;21.75;47.37;101976.53;6156361;23;45268;-72
2021/09/30 08:05:01;;;;;;;;;10.00;6.00;;;;;21.80;47.29;101987.06;6155488;23;45509;-70
2021/09/30 08:07:26;;;;;;;;;11.25;8.25;;;;;21.82;47.02;101990.59;6129993;23;58840;-71
2021/09/30 08:09:51;;;;;;;;;8.25;6.75;;;;;21.85;47.19;101990.53;6156557;23;54116;-71
2021/09/30 08:12:17;;;;;;;;;7.50;5.00;;;;;21.86;47.08;101986.97;6105049;23;45313;-70
2021/09/30 08:14:42;;;;;;;;;7.00;7.00;;;;;21.86;47.35;101992.28;6154924;23;54880;-70
2021/09/30 08:17:08;;;;;;;;;9.00;6.00;;;;;21.91;47.60;101993.09;6129422;23;63858;-72
2021/09/30 08:19:33;;;;;;;;;10.25;8.50;;;;;21.88;47.14;101985.16;6130316;23;47427;-70
2021/09/30 08:21:59;;;;;;;;;8.25;6.00;;;;;21.93;47.13;101994.81;6130046;23;45657;-71
2021/09/30 08:24:25;;;;;;;;;5.25;5.25;;;;;21.93;47.11;102000.13;6130735;23;45442;-70
2021/09/30 08:26:50;;;;;;;;;9.00;7.25;;;;;21.94;47.05;101993.91;6105866;23;45467;-71
2021/09/30 08:29:16;;;;;;;;;6.50;4.25;;;;;21.95;47.16;101998.31;6105118;23;48053;-70
2021/09/30 08:31:42;;;;;;;;;10.25;7.00;;;;;21.97;47.20;102000.94;6131053;23;45291;-70
2021/09/30 08:34:08;;;;;;;;;9.00;7.00;;;;;21.97;47.59;101996.50;6130894;23;45273;-70
2021/09/30 08:36:33;;;;;;;;;6.00;6.00;;;;;21.97;47.52;102001.81;6155493;23;45310;-70
2021/09/30 08:38:59;;;;;;;;;9.50;7.00;;;;;21.97;47.05;102000.94;6130305;23;45574;-70
2021/09/30 08:41:24;;;;;;;;;7.75;7.50;;;;;21.97;47.63;101995.63;6130560;23;45353;-70
2021/09/30 08:43:50;;;;;;;;;10.50;8.00;;;;;21.97;47.46;101996.50;6130391;23;47354;-70
2021/09/30 08:46:15;;;;;;;;;9.75;6.50;;;;;21.97;47.73;101991.19;6130721;23;45365;-70
2021/09/30 08:48:41;;;;;;;;;7.50;7.00;;;;;22.00;47.81;101991.16;6130080;23;48595;-72
2021/09/30 08:51:07;;;;;;;;;6.75;6.25;;;;;21.98;47.44;101985.00;6155160;23;45313;-70
2021/09/30 08:53:33;;;;;;;;;10.00;6.00;;;;;22.02;47.92;101985.78;6155552;23;45289;-70
2021/09/30 08:56:00;;;;;;;;;7.25;7.25;;;;;22.04;47.41;101977.78;6130185;23;45342;-70
2021/09/30 08:58:25;;;;;;;;;6.00;5.00;;;;;22.04;47.67;101991.94;6130416;23;45283;-71
2021/09/30 09:00:52;;;;;;;;;7.00;6.25;;;;;22.04;47.25;101980.44;6130625;23;47364;-70
2021/09/30 09:03:30;;;;;;;;;7.50;7.50;;;;;22.05;47.31;101976.88;6105865;23;45441;-70
2021/09/30 09:05:56;;;;;;;;;7.50;5.00;;;;;22.05;47.81;101969.78;6131640;23;45326;-70
2021/09/30 09:08:21;;;;;;;;;4.00;4.00;;;;;22.07;47.28;101967.13;6155187;23;45335;-70
2021/09/30 09:10:46;;;;;;;;;9.75;7.50;;;;;22.06;47.29;101965.31;6130418;23;45383;-69
2021/09/30 09:13:17;;;;;;;;;7.00;7.00;;;;;22.09;47.65;101962.66;6130208;23;45361;-69
2021/09/30 09:15:43;;;;;;;;;8.75;7.00;;;;;22.08;47.35;101967.13;6130071;23;45123;-71
2021/09/30 09:18:12;;;;;;;;;9.25;5.75;;;;;;;;6154988;23;45419;-71
2021/09/30 09:20:37;;;;;;;;;6.00;5.00;;;;;22.10;47.46;101961.75;6156206;23;45342;-71
2021/09/30 09:23:03;;;;;;;;;5.00;4.25;;;;;22.11;47.50;101959.06;6130092;23;45737;-71
2021/09/30 09:25:29;;;;;;;;;5.75;4.50;;;;;22.09;47.03;101954.69;6104558;23;58507;-71
2021/09/30 09:27:58;;;;;;;;;8.75;5.75;;;;;22.07;47.05;101953.81;6105760;23;47110;-71
2021/09/30 09:30:30;;;;;;;;;5.50;4.25;;;;;22.12;47.57;101965.25;6154972;23;45459;-71
2021/09/30 09:33:19;;;;;;;;;4.00;4.00;;;;;22.12;47.03;101959.94;6154566;23;45131;-71
2021/09/30 09:35:54;;;;;;;;;6.25;3.75;;;;;22.10;46.99;101954.66;6156616;23;45253;-71
2021/09/30 09:38:21;;;;;;;;;10.00;6.50;;;;;22.11;47.08;101953.75;6156266;23;45643;-71
2021/09/30 09:40:47;;;;;;;;;6.00;5.00;;;;;22.07;46.97;101946.75;6154344;23;45412;-71
2021/09/30 09:43:44;;;;;;;;;6.00;4.00;;;;;22.10;46.83;101956.44;6156195;23;45301;-71
2021/09/30 09:46:11;;;;;;;;;7.25;5.00;;;;;22.10;46.97;101956.44;6089822;23;45403;-71
2021/09/30 09:48:37;;;;;;;;;5.25;4.00;;;;;22.09;46.70;101952.03;6105376;23;48154;-70
2021/09/30 09:51:03;;;;;;;;;5.25;3.50;;;;;;;;6130096;23;45187;-71
2021/09/30 09:53:29;;;;;;;;;4.00;3.25;;;;;;;;6155429;23;45353;-71
2021/09/30 09:56:16;;;;;;;;;6.50;5.50;;;;;22.08;46.76;101951.16;6129769;23;45308;-71
2021/09/30 09:58:55;;;;;;;;;8.00;5.75;;;;;22.11;47.21;101958.19;6153928;23;47172;-71
2021/09/30 10:01:40;;;;;;;;;3.50;3.50;;;;;;;;6106444;23;45215;-71
2021/09/30 10:04:06;;;;;;;;;3.75;3.25;;;;;22.12;46.38;101951.97;6155561;23;45166;-71
2021/09/30 10:06:32;;;;;;;;;5.75;3.00;;;;;22.12;46.69;101949.31;6130301;23;45560;-71
2021/09/30 10:09:01;;;;;;;;;4.50;4.00;;;;;22.11;46.63;101951.09;6154554;23;45147;-71
2021/09/30 10:11:27;;;;;;;;;7.00;5.00;;;;;22.13;46.95;101949.28;6105414;23;45301;-71
2021/09/30 10:13:57;;;;;;;;;4.00;3.00;;;;;22.10;46.94;101938.72;6129284;23;45324;-71
2021/09/30 10:16:25;;;;;;;;;7.00;5.00;;;;;22.08;47.01;101937.88;6130534;23;45300;-71
2021/09/30 10:18:52;;;;;;;;;8.00;4.50;;;;;22.13;47.18;101945.75;6154774;23;45462;-71
2021/09/30 10:21:18;;;;;;;;;6.25;4.00;;;;;22.13;46.84;101948.41;6154403;23;45262;-71
2021/09/30 10:23:43;;;;;;;;;5.25;3.00;;;;;22.11;47.33;101942.25;6129742;23;45258;-71
2021/09/30 10:26:16;;;;;;;;;5.50;5.00;;;;;22.13;47.13;101943.06;6104536;23;48817;-71
2021/09/30 10:28:44;;;;;;;;;5.75;5.75;;;;;22.11;47.09;101935.13;6129750;23;47498;-71
2021/09/30 10:31:26;;;;;;;;;7.00;3.00;;;;;22.11;46.92;101935.13;6129705;23;45245;-71
2021/09/30 10:33:53;;;;;;;;;2.50;2.50;;;;;22.10;47.08;101932.50;6131471;23;45261;-71
2021/09/30 10:36:44;;;;;;;;;6.25;4.75;;;;;22.09;47.24;101933.44;6130322;23;45408;-71
2021/09/30 10:39:23;;;;;;;;;4.25;4.00;;;;;22.10;47.04;101935.16;6131933;23;45896;-71
2021/09/30 10:41:50;;;;;;;;;7.00;3.25;;;;;22.08;47.57;101931.69;6130503;23;45210;-71
2021/09/30 10:44:21;;;;;;;;;6.00;5.00;;;;;22.05;47.10;101924.56;6130491;23;45278;-71
2021/09/30 10:46:52;;;;;;;;;3.50;3.50;;;;;22.06;47.14;101920.13;6106536;23;45299;-71
2021/09/30 10:49:45;;;;;;;;;3.00;3.00;;;;;22.05;47.47;101924.56;6130739;23;45182;-71
2021/09/30 10:52:16;;;;;;;;;6.50;4.50;;;;;22.05;47.60;101924.56;6117576;23;45522;-71
2021/09/30 10:54:42;;;;;;;;;6.50;5.00;;;;;22.04;47.58;101922.81;6157398;23;45233;-71
2021/09/30 10:57:32;;;;;;;;;3.75;3.00;;;;;22.04;47.20;101919.28;6130613;23;45313;-71
2021/09/30 10:59:58;;;;;;;;;6.50;3.50;;;;;22.04;47.16;101911.31;6154999;23;46810;-71
2021/09/30 11:02:24;;;;;;;;;3.00;3.00;;;;;22.04;47.13;101903.34;6130934;23;45337;-71
2021/09/30 11:05:04;;;;;;;;;5.75;4.25;;;;;22.04;47.15;101906.00;6131326;23;45247;-71
2021/09/30 11:07:29;;;;;;;;;5.75;2.75;;;;;22.04;47.01;101890.94;6130495;23;45332;-71
2021/09/30 11:10:18;;;;;;;;;3.25;2.00;;;;;22.06;47.15;101888.22;6156247;23;68463;-71
2021/09/30 11:13:15;;;;;;;;;4.50;4.00;;;;;22.06;47.38;101888.22;6155117;23;45350;-71
2021/09/30 11:16:07;;;;;;;;;2.00;2.00;;;;;22.05;47.18;101881.16;6155480;23;45383;-71
2021/09/30 11:18:46;;;;;;;;;3.00;2.50;;;;;22.07;46.99;101885.59;6130586;23;45193;-71
2021/09/30 11:21:30;;;;;;;;;3.00;2.00;;;;;22.06;46.79;101866.97;6153599;23;46172;-71
2021/09/30 11:23:56;;;;;;;;;3.00;3.00;;;;;22.06;46.81;101862.53;6157049;23;45249;-71
2021/09/30 11:26:22;;;;;;;;;1.00;1.00;;;;;22.06;46.51;101864.31;6156089;23;45327;-71
2021/09/30 11:28:47;;;;;;;;;3.00;2.25;;;;;22.06;46.58;101854.53;6155114;23;45380;-71
2021/09/30 11:31:29;;;;;;;;;3.50;3.50;;;;;22.07;46.82;101852.78;6154931;23;45934;-71
2021/09/30 11:33:58;;;;;;;;;2.75;2.00;;;;;22.07;45.94;101852.78;6130399;23;45205;-71
2021/09/30 11:36:34;;;;;;;;;2.00;2.00;;;;;22.07;45.54;101855.44;6131008;23;45136;-71
2021/09/30 11:39:00;;;;;;;;;3.00;2.00;;;;;22.07;45.19;101850.13;6154963;23;45507;-71
2021/09/30 11:41:32;;;;;;;;;3.75;1.75;;;;;22.06;45.12;101857.19;6130613;23;46110;-71
2021/09/30 11:44:03;;;;;;;;;3.25;2.00;;;;;22.05;45.09;101851.91;6155044;23;45314;-72
2021/09/30 11:46:33;;;;;;;;;2.00;1.00;;;;;22.05;43.43;101855.44;6130709;23;45379;-73
2021/09/30 11:49:00;;;;;;;;;1.75;1.00;;;;;22.07;42.19;101852.78;6130168;23;45611;-73
2021/09/30 11:51:38;;;;;;;;;1.25;1.25;;;;;22.06;40.78;101843.03;6130696;23;45360;-72
2021/09/30 11:54:04;;;;;;;;;0.50;0.50;;;;;22.06;40.18;101835.94;6132219;23;45334;-71
2021/09/30 11:56:41;;;;;;;;;0.00;0.00;;;;;22.06;39.46;101840.38;6131067;23;45337;-71
2021/09/30 11:59:07;;;;;;;;;0.25;0.25;;;;;22.05;38.64;101831.53;6155682;23;45266;-71
2021/09/30 12:01:44;;;;;;;;;2.00;0.75;;;;;22.07;38.64;101842.16;6105863;23;47128;-71
2021/09/30 12:04:10;;;;;;;;;2.00;0.00;;;;;22.07;38.38;101832.44;6131759;23;45207;-71
2021/09/30 12:06:46;;;;;;;;;0.00;0.00;;;;;22.07;37.83;101837.75;6155818;23;45190;-71
2021/09/30 12:09:13;;;;;;;;;0.25;0.25;;;;;22.05;37.98;101823.56;6130415;23;45458;-71
2021/09/30 12:11:39;;;;;;;;;2.50;1.50;;;;;22.07;37.76;101824.44;6130031;23;48250;-71
2021/09/30 12:14:05;;;;;;;;;1.25;1.00;;;;;22.05;37.52;101823.56;6154854;23;45290;-71
2021/09/30 12:16:31;;;;;;;;;0.50;0.50;;;;;22.03;36.94;101804.09;6130898;23;45407;-71
2021/09/30 12:19:20;;;;;;;;;0.00;0.00;;;;;22.06;37.59;101803.16;6155662;23;45292;-72
2021/09/30 12:21:48;;;;;;;;;0.00;0.00;;;;;22.02;37.37;101797.91;6132147;23;47219;-72
2021/09/30 12:24:13;;;;;;;;;1.00;1.00;;;;;22.01;36.78;101788.19;6130596;23;47647;-72
2021/09/30 12:26:41;;;;;;;;;2.00;1.00;;;;;22.01;37.03;101782.00;6130531;23;45351;-72
2021/09/30 12:29:06;;;;;;;;;0.00;0.00;;;;;22.02;37.80;101786.41;6130246;23;53067;-72
2021/09/30 12:31:31;;;;;;;;;2.75;0.00;;;;;22.05;37.39;101778.34;6130955;23;45385;-68
2021/09/30 12:33:59;;;;;;;;;3.00;1.00;;;;;22.04;37.12;101781.94;6154069;23;68266;-73
2021/09/30 12:36:43;;;;;;;;;2.00;0.00;;;;;22.07;36.27;101783.66;6129744;23;45196;-73
2021/09/30 12:39:08;;;;;;;;;0.75;0.50;;;;;22.06;35.86;101776.56;6133461;23;45203;-72
2021/09/30 12:41:34;;;;;;;;;2.00;1.00;;;;;22.04;36.28;101775.75;6154634;23;63715;-74
2021/09/30 12:44:10;;;;;;;;;0.25;0.25;;;;;22.05;35.87;101764.19;6130549;23;45202;-72
2021/09/30 12:46:43;;;;;;;;;0.50;0.00;;;;;22.05;35.71;101766.84;6131044;23;45256;-73
2021/09/30 12:49:20;;;;;;;;;1.75;1.00;;;;;22.05;35.84;101767.72;6129983;23;45259;-77
2021/09/30 12:51:46;;;;;;;;;2.00;0.75;;;;;22.02;36.30;101754.50;6155806;23;45226;-72
2021/09/30 12:54:29;;;;;;;;;0.75;0.75;;;;;22.11;36.10;101758.78;6130894;23;45609;-73
2021/09/30 12:57:07;;;;;;;;;2.00;0.00;;;;;22.13;37.51;101748.97;6112682;23;45210;-73
2021/09/30 12:59:32;;;;;;;;;1.00;0.00;;;;;22.14;37.45;101753.38;6131955;23;45656;-75
2021/09/30 13:02:02;;;;;;;;;1.25;1.25;;;;;22.15;36.97;101740.06;6154852;23;62106;-72
2021/09/30 13:04:28;;;;;;;;;0.75;0.75;;;;;22.16;36.73;101752.47;6154897;23;46088;-72
2021/09/30 13:07:00;;;;;;;;;1.00;1.00;;;;;22.17;37.47;101740.91;6131116;23;45234;-74
2021/09/30 13:09:30;;;;;;;;;1.00;1.00;;;;;22.17;36.04;101737.38;6155084;23;45255;-72
2021/09/30 13:12:15;;;;;;;;;2.00;1.00;;;;;22.11;35.94;101737.50;6106232;23;48217;-73
2021/09/30 13:14:48;;;;;;;;;0.75;0.75;;;;;22.04;36.03;101734.06;6125235;23;45881;-73
2021/09/30 13:17:26;;;;;;;;;0.75;0.75;;;;;22.01;36.37;101723.53;6105632;23;45190;-73
2021/09/30 13:20:01;;;;;;;;;3.00;0.75;;;;;22.01;36.31;101712.88;6105622;23;45392;-73
2021/09/30 13:22:35;;;;;;;;;0.75;0.75;;;;;21.96;36.08;101710.31;6155068;23;46200;-73
2021/09/30 13:25:04;;;;;;;;;0.00;0.00;;;;;22.00;36.90;101720.00;6119103;23;45836;-73
2021/09/30 13:27:32;;;;;;;;;1.00;0.75;;;;;21.99;36.37;101696.97;6129920;23;45441;-73
2021/09/30 13:29:58;;;;;;;;;0.00;0.00;;;;;21.99;36.42;101712.94;6106292;23;45595;-73
2021/09/30 13:32:25;;;;;;;;;1.00;1.00;;;;;22.02;36.82;101704.88;6104814;23;47533;-73
2021/09/30 13:34:51;;;;;;;;;5.00;1.00;;;;;22.00;36.01;101704.03;6130600;23;45194;-73
2021/09/30 13:37:17;;;;;;;;;0.00;0.00;;;;;21.99;36.62;101702.28;6130353;23;45311;-73
2021/09/30 13:39:42;;;;;;;;;1.00;1.00;;;;;22.00;35.89;101693.41;6154789;23;45170;-74
2021/09/30 13:42:08;;;;;;;;;1.00;0.00;;;;;21.98;35.49;101694.34;6155456;23;47044;-73
2021/09/30 13:44:33;;;;;;;;;1.00;0.00;;;;;21.97;35.83;101688.13;6130361;23;45341;-73
2021/09/30 13:46:59;;;;;;;;;0.00;0.00;;;;;21.96;36.08;101689.06;6129390;23;45374;-73
2021/09/30 13:49:24;;;;;;;;;0.50;0.00;;;;;21.96;35.53;101686.41;6156439;23;45263;-73
2021/09/30 13:51:49;;;;;;;;;1.75;1.75;;;;;21.96;35.77;101685.53;6153292;23;65644;-74
2021/09/30 13:54:15;;;;;;;;;0.25;0.25;;;;;21.95;35.92;101687.31;6156017;23;59782;-73
2021/09/30 13:56:41;;;;;;;;;0.50;0.50;;;;;21.94;35.76;101668.75;6154987;23;45454;-72
2021/09/30 13:59:06;;;;;;;;;1.00;0.25;;;;;21.95;35.86;101673.16;6129700;23;45703;-72
2021/09/30 14:01:32;;;;;;;;;1.75;1.75;;;;;21.93;35.86;101669.66;6155201;23;45943;-74
2021/09/30 14:03:57;;;;;;;;;0.00;0.00;;;;;21.84;35.97;101661.91;6130449;23;45337;-73
2021/09/30 14:06:23;;;;;;;;;0.50;0.00;;;;;21.88;36.60;101660.91;6123838;23;45666;-76
2021/09/30 14:08:52;;;;;;;;;4.50;2.50;;;;;21.87;36.41;101644.09;6156094;23;45170;-74
2021/09/30 14:11:18;;;;;;;;;73.50;52.25;;;;;21.88;37.09;101643.16;6155249;23;47193;-74
2021/09/30 14:13:43;;;;;;;;;11.25;7.25;;;;;21.88;36.79;101639.63;6155846;23;45237;-74
2021/09/30 14:16:09;;;;;;;;;6.75;5.00;;;;;21.85;37.27;101640.59;6157959;23;45292;-74
2021/09/30 14:18:34;;;;;;;;;1.25;1.25;;;;;21.86;36.19;101633.50;6155928;23;45585;-74
2021/09/30 14:21:00;;;;;;;;;1.25;1.25;;;;;21.77;36.66;101625.72;6156119;23;45561;-76